Time;durP1;ratioP1;P1;durP2;ratioP2;P2;SDS_P1;SDS_P2;PMS_P1;PMS_P2;Temp;Humidity;BMP_temperature;BMP_pressure;BME280_temperature;BME280_humidity;BME280_pressure;Samples;Min_cycle;Max_cycle;Signal;HPM_P1;HPM_P2
2021/08/10 00:01:48;;;;;;;1.30;1.08;;;12.10;62.60;;;;;;5053943;28;20238;-47
2021/08/10 00:04:18;;;;;;;2.42;1.33;;;12.10;62.60;;;;;;5046214;28;20223;-48
2021/08/10 00:06:49;;;;;;;1.52;1.02;;;12.10;62.50;;;;;;5052116;28;20611;-47
2021/08/10 00:09:19;;;;;;;2.17;1.10;;;12.20;62.50;;;;;;5053561;28;20706;-45
2021/08/10 00:11:49;;;;;;;1.35;1.10;;;12.20;62.40;;;;;;5052815;28;20203;-44
2021/08/10 00:14:20;;;;;;;1.38;1.10;;;12.20;62.50;;;;;;5044849;28;20595;-44
2021/08/10 00:16:52;;;;;;;1.70;1.00;;;12.20;62.60;;;;;;5049339;28;20302;-56
2021/08/10 00:19:23;;;;;;;1.52;1.10;;;12.20;62.60;;;;;;5046651;28;20219;-56
2021/08/10 00:21:53;;;;;;;1.83;1.15;;;12.30;62.70;;;;;;5042132;28;20223;-45
2021/08/10 00:24:23;;;;;;;2.05;1.23;;;12.40;62.70;;;;;;5052138;28;20290;-42
2021/08/10 00:26:54;;;;;;;1.33;1.02;;;12.30;62.60;;;;;;5052032;28;20273;-43
2021/08/10 00:29:24;;;;;;;1.45;1.30;;;12.40;62.60;;;;;;5042227;28;20665;-49
2021/08/10 00:31:56;;;;;;;1.50;1.20;;;12.40;62.60;;;;;;5042353;28;20246;-51
2021/08/10 00:34:27;;;;;;;1.38;1.00;;;12.40;62.60;;;;;;5040860;28;20223;-47
2021/08/10 00:36:57;;;;;;;1.40;1.30;;;12.50;62.60;;;;;;5040093;28;20247;-45
2021/08/10 00:39:28;;;;;;;1.63;1.00;;;12.50;62.70;;;;;;5031887;28;20250;-46
2021/08/10 00:41:58;;;;;;;1.10;1.00;;;12.50;62.70;;;;;;5032980;28;20443;-49
2021/08/10 00:44:29;;;;;;;1.63;1.15;;;12.50;62.70;;;;;;5032214;28;20251;-43
2021/08/10 00:47:01;;;;;;;1.20;1.10;;;12.60;62.80;;;;;;5032058;28;20318;-49
2021/08/10 00:49:31;;;;;;;2.78;1.20;;;12.60;62.80;;;;;;5034852;28;20287;-41
2021/08/10 00:52:02;;;;;;;1.10;0.95;;;12.60;62.80;;;;;;5052121;28;20659;-47
2021/08/10 00:54:32;;;;;;;1.35;1.20;;;12.60;62.80;;;;;;5035687;28;20276;-47
2021/08/10 00:57:02;;;;;;;1.20;1.10;;;12.70;63.00;;;;;;5032678;28;20655;-45
2021/08/10 00:59:33;;;;;;;1.45;1.02;;;12.70;63.00;;;;;;5045973;28;20270;-48
2021/08/10 01:02:05;;;;;;;1.20;1.10;;;12.70;63.00;;;;;;5051233;28;20235;-51
2021/08/10 01:04:36;;;;;;;1.35;1.00;;;12.80;63.00;;;;;;5051345;28;20282;-44
2021/08/10 01:07:09;;;;;;;0.85;0.85;;;12.80;63.00;;;;;;5051383;28;20267;-45
2021/08/10 01:09:44;;;;;;;1.23;1.08;;;12.80;62.90;;;;;;5051603;28;20231;-44
2021/08/10 01:12:15;;;;;;;2.17;1.02;;;12.90;62.90;;;;;;5052401;28;20235;-41
2021/08/10 01:14:51;;;;;;;1.77;1.10;;;12.90;62.90;;;;;;5051719;28;20203;-43
2021/08/10 01:17:27;;;;;;;1.52;1.02;;;12.90;62.90;;;;;;5052091;28;20337;-44
2021/08/10 01:20:28;;;;;;;1.77;1.08;;;13.00;62.90;;;;;;5052125;28;20241;-43
2021/08/10 01:22:59;;;;;;;1.45;1.02;;;13.00;63.00;;;;;;5047301;28;20235;-44
2021/08/10 01:25:40;;;;;;;0.98;0.82;;;13.00;62.90;;;;;;5052248;28;20715;-43
2021/08/10 01:28:21;;;;;;;0.98;0.93;;;13.10;62.90;;;;;;5051425;28;20265;-42
2021/08/10 01:31:01;;;;;;;1.00;0.90;;;13.10;62.90;;;;;;5051353;28;20238;-45
2021/08/10 01:33:34;;;;;;;1.15;0.95;;;13.10;62.80;;;;;;5051918;28;20616;-46
2021/08/10 01:36:04;;;;;;;0.82;0.80;;;13.20;62.80;;;;;;5051301;28;20262;-50
2021/08/10 01:38:35;;;;;;;0.70;0.70;;;13.20;62.70;;;;;;5052045;28;20286;-46
2021/08/10 01:41:05;;;;;;;0.90;0.90;;;13.20;62.70;;;;;;5051013;28;20227;-53
2021/08/10 01:43:36;;;;;;;1.23;1.00;;;13.20;62.60;;;;;;5051958;28;20222;-42
2021/08/10 01:46:06;;;;;;;0.98;0.88;;;13.30;62.70;;;;;;5038155;28;20323;-42
2021/08/10 01:48:38;;;;;;;0.80;0.80;;;13.30;62.60;;;;;;5032359;28;20227;-42
2021/08/10 01:51:09;;;;;;;1.15;0.85;;;13.30;62.60;;;;;;5048478;28;20291;-43
2021/08/10 01:53:40;;;;;;;0.98;0.88;;;13.40;62.50;;;;;;5051453;28;20636;-43
2021/08/10 01:56:10;;;;;;;1.00;0.85;;;13.40;62.50;;;;;;5051604;28;20251;-44
2021/08/10 01:58:41;;;;;;;1.33;0.95;;;13.50;62.50;;;;;;5051962;28;20253;-42
2021/08/10 02:01:11;;;;;;;1.17;0.82;;;13.50;62.40;;;;;;5051931;28;20320;-44
2021/08/10 02:03:44;;;;;;;0.70;0.70;;;13.50;62.40;;;;;;5051817;28;20231;-42
2021/08/10 02:06:16;;;;;;;1.00;0.90;;;13.60;62.50;;;;;;5051466;28;20223;-44
2021/08/10 02:08:46;;;;;;;1.25;0.90;;;13.60;62.40;;;;;;5051496;28;20196;-42
2021/08/10 02:11:16;;;;;;;1.15;0.85;;;13.60;62.40;;;;;;5051956;28;20615;-44
2021/08/10 02:13:47;;;;;;;1.00;0.90;;;13.70;62.50;;;;;;5051934;28;20287;-44
2021/08/10 02:16:18;;;;;;;1.00;0.90;;;13.70;62.40;;;;;;5051694;28;20243;-48
2021/08/10 02:18:52;;;;;;;0.65;0.65;;;13.70;62.40;;;;;;5051840;28;20227;-43
2021/08/10 02:21:29;;;;;;;0.82;0.82;;;13.80;62.30;;;;;;5051563;28;20289;-42
2021/08/10 02:24:03;;;;;;;0.98;0.70;;;13.80;62.40;;;;;;5051948;28;20230;-42
2021/08/10 02:26:34;;;;;;;0.85;0.85;;;13.80;62.40;;;;;;5048202;28;20226;-43
2021/08/10 02:29:04;;;;;;;0.73;0.73;;;13.90;63.20;;;;;;5031788;28;20284;-48
2021/08/10 02:31:34;;;;;;;0.70;0.70;;;13.90;62.40;;;;;;5031666;28;20227;-43
2021/08/10 02:34:07;;;;;;;0.95;0.80;;;14.00;62.50;;;;;;5031627;28;20715;-51
2021/08/10 02:36:37;;;;;;;0.80;0.70;;;14.00;62.50;;;;;;5031015;28;20255;-53
2021/08/10 02:39:08;;;;;;;0.88;0.70;;;14.10;62.40;;;;;;5031407;28;20232;-47
2021/08/10 02:41:39;;;;;;;1.00;0.80;;;14.10;62.40;;;;;;5031471;28;20683;-44
2021/08/10 02:44:09;;;;;;;0.50;0.50;;;14.10;62.30;;;;;;5031996;28;20279;-42
2021/08/10 02:46:40;;;;;;;1.10;0.85;;;14.20;62.30;;;;;;5033396;28;20315;-43
2021/08/10 02:49:13;;;;;;;0.93;0.73;;;14.20;62.30;;;;;;5050959;28;20239;-45
2021/08/10 02:51:44;;;;;;;0.80;0.80;;;14.30;62.30;;;;;;5050199;28;20287;-51
2021/08/10 02:54:14;;;;;;;0.70;0.70;;;14.30;62.30;;;;;;5048989;28;20302;-48
2021/08/10 02:56:47;;;;;;;0.68;0.68;;;14.30;62.30;;;;;;5050447;28;20261;-42
2021/08/10 02:59:20;;;;;;;0.73;0.73;;;14.40;62.40;;;;;;5049920;28;20238;-44
2021/08/10 03:01:53;;;;;;;1.13;1.02;;;14.40;62.30;;;;;;5051184;28;20253;-50
2021/08/10 03:04:26;;;;;;;0.82;0.82;;;14.50;62.40;;;;;;5049940;28;20282;-43
2021/08/10 03:06:56;;;;;;;0.75;0.75;;;14.50;62.40;;;;;;5050557;28;20503;-44
2021/08/10 03:09:27;;;;;;;0.63;0.63;;;14.60;62.40;;;;;;5050096;28;20295;-46
2021/08/10 03:11:57;;;;;;;0.60;0.60;;;14.60;62.40;;;;;;5050985;28;20612;-44
2021/08/10 03:14:28;;;;;;;0.60;0.60;;;14.60;62.40;;;;;;5050320;28;20234;-45
2021/08/10 03:16:58;;;;;;;1.25;0.70;;;14.60;62.40;;;;;;5050498;28;20247;-46
2021/08/10 03:19:30;;;;;;;0.75;0.70;;;14.70;62.30;;;;;;5050797;28;20195;-49
2021/08/10 03:22:01;;;;;;;0.80;0.80;;;14.70;62.20;;;;;;5051356;28;20206;-45
2021/08/10 03:24:31;;;;;;;0.90;0.70;;;14.80;62.20;;;;;;5050946;28;20226;-45
2021/08/10 03:27:04;;;;;;;0.60;0.60;;;14.80;62.10;;;;;;5050817;28;20704;-45
2021/08/10 03:29:36;;;;;;;0.63;0.63;;;14.90;62.10;;;;;;5045363;28;20223;-56
2021/08/10 03:32:06;;;;;;;0.90;0.73;;;14.90;62.00;;;;;;5037439;28;20195;-43
2021/08/10 03:34:39;;;;;;;0.70;0.70;;;15.00;62.00;;;;;;5030115;28;20231;-46
2021/08/10 03:37:09;;;;;;;0.65;0.65;;;15.00;62.00;;;;;;5030023;28;20252;-43
2021/08/10 03:39:40;;;;;;;0.70;0.70;;;15.00;62.00;;;;;;5030539;28;20234;-43
2021/08/10 03:42:11;;;;;;;0.70;0.70;;;15.10;62.00;;;;;;5029281;28;20235;-47
2021/08/10 03:44:43;;;;;;;0.68;0.60;;;15.10;62.00;;;;;;5037925;23;20708;-53
2021/08/10 03:47:14;;;;;;;0.57;0.57;;;15.20;62.00;;;;;;5010156;28;20243;-50
2021/08/10 03:49:46;;;;;;;0.73;0.70;;;15.20;62.00;;;;;;5010675;28;20239;-53
2021/08/10 03:52:17;;;;;;;0.50;0.50;;;15.20;62.00;;;;;;5010590;28;20280;-55
2021/08/10 03:54:47;;;;;;;0.77;0.70;;;15.30;62.00;;;;;;5010470;28;20225;-50
2021/08/10 03:57:18;;;;;;;0.50;0.50;;;15.30;62.00;;;;;;5010170;28;20624;-50
2021/08/10 03:59:49;;;;;;;0.68;0.60;;;15.40;62.00;;;;;;5010324;28;20229;-55
2021/08/10 04:02:20;;;;;;;0.75;0.57;;;15.40;61.90;;;;;;5010312;28;20601;-52
2021/08/10 04:04:53;;;;;;;0.50;0.50;;;15.40;61.80;;;;;;5012405;28;20250;-50
2021/08/10 04:07:24;;;;;;;0.60;0.60;;;15.50;61.70;;;;;;5013397;28;20228;-54
2021/08/10 04:09:57;;;;;;;0.73;0.60;;;15.50;61.80;;;;;;5013085;28;20204;-50
2021/08/10 04:12:33;;;;;;;0.55;0.50;;;15.50;61.50;;;;;;5013693;28;20270;-52
2021/08/10 04:15:06;;;;;;;0.63;0.63;;;15.60;61.40;;;;;;5013193;28;20207;-54
2021/08/10 04:17:39;;;;;;;0.68;0.68;;;15.60;61.40;;;;;;5013860;28;20248;-52
2021/08/10 04:20:17;;;;;;;0.60;0.60;;;15.60;61.40;;;;;;5012486;28;20211;-51
2021/08/10 04:22:50;;;;;;;0.63;0.52;;;15.70;61.40;;;;;;5012821;28;20193;-53
2021/08/10 04:25:33;;;;;;;0.80;0.80;;;15.70;61.40;;;;;;5013271;28;20314;-55
2021/08/10 04:28:07;;;;;;;1.02;0.60;;;15.70;61.40;;;;;;5012773;28;20677;-56
2021/08/10 04:30:37;;;;;;;0.57;0.57;;;15.70;61.40;;;;;;5012656;28;20665;-52
2021/08/10 04:33:14;;;;;;;0.75;0.75;;;15.80;61.50;;;;;;5012236;28;20201;-55
2021/08/10 04:35:46;;;;;;;0.70;0.70;;;15.80;61.50;;;;;;5013520;28;20223;-55
2021/08/10 04:38:23;;;;;;;0.65;0.65;;;15.80;61.70;;;;;;5013127;28;20565;-55
2021/08/10 04:40:59;;;;;;;0.68;0.68;;;15.90;61.70;;;;;;5012981;28;20291;-51
2021/08/10 04:43:34;;;;;;;0.65;0.65;;;15.90;61.70;;;;;;5012288;28;20196;-59
2021/08/10 04:46:13;;;;;;;0.88;0.68;;;15.90;61.60;;;;;;5015404;23;20256;-46
2021/08/10 04:49:11;;;;;;;0.70;0.60;;;15.90;61.60;;;;;;4992604;28;20271;-42
2021/08/10 04:51:43;;;;;;;0.55;0.55;;;16.00;61.60;;;;;;4995563;28;20284;-43
2021/08/10 04:54:15;;;;;;;1.55;0.82;;;16.00;61.20;;;;;;4993702;28;20208;-42
2021/08/10 04:56:52;;;;;;;0.52;0.52;;;16.00;61.20;;;;;;4993914;28;20763;-44
2021/08/10 04:59:26;;;;;;;0.88;0.65;;;16.00;61.30;;;;;;4993516;28;20197;-42
2021/08/10 05:02:05;;;;;;;0.80;0.70;;;16.00;61.40;;;;;;4993557;28;20205;-41
2021/08/10 05:04:46;;;;;;;0.77;0.70;;;16.00;61.40;;;;;;4993881;28;20198;-42
2021/08/10 05:07:29;;;;;;;0.80;0.60;;;16.00;61.50;;;;;;4993578;28;20225;-41
2021/08/10 05:10:05;;;;;;;0.77;0.60;;;16.00;61.50;;;;;;4993716;28;20197;-42
2021/08/10 05:12:38;;;;;;;0.70;0.70;;;16.10;61.60;;;;;;4993064;28;20581;-42
2021/08/10 05:15:18;;;;;;;0.60;0.60;;;16.00;61.60;;;;;;4992655;28;20646;-46
2021/08/10 05:17:49;;;;;;;0.60;0.60;;;16.00;61.60;;;;;;4992866;28;20568;-44
2021/08/10 05:20:22;;;;;;;0.60;0.60;;;16.10;61.60;;;;;;5001223;28;20193;-41
2021/08/10 05:23:00;;;;;;;0.70;0.70;;;16.10;61.60;;;;;;4992324;28;20194;-49
2021/08/10 05:25:41;;;;;;;0.73;0.63;;;16.00;61.50;;;;;;4991763;28;20217;-44
2021/08/10 05:28:14;;;;;;;0.73;0.73;;;16.10;61.40;;;;;;4992984;28;20226;-55
2021/08/10 05:30:47;;;;;;;0.60;0.60;;;16.00;61.20;;;;;;4992628;28;20213;-47
2021/08/10 05:36:24;;;;;;;0.60;0.57;;;16.00;61.00;;;;;;4991542;28;20720;-45
2021/08/10 05:39:03;;;;;;;0.60;0.60;;;16.10;61.00;;;;;;4991987;28;20224;-52
2021/08/10 05:41:44;;;;;;;0.98;0.60;;;16.00;60.90;;;;;;4991047;28;20232;-42
2021/08/10 05:46:49;;;;;;;1.00;0.88;;;16.00;60.90;;;;;;4989471;28;20236;-53
2021/08/10 05:49:20;;;;;;;0.85;0.85;;;16.00;60.80;;;;;;4990427;28;20697;-57
2021/08/10 05:51:58;;;;;;;0.93;0.90;;;16.00;60.90;;;;;;4974788;28;20365;-50
2021/08/10 05:54:35;;;;;;;0.80;0.80;;;16.00;61.00;;;;;;4991849;28;20683;-48
2021/08/10 05:57:09;;;;;;;1.02;0.90;;;16.00;61.20;;;;;;4982250;28;20233;-45
2021/08/10 05:59:46;;;;;;;1.23;1.13;;;16.00;61.30;;;;;;4971971;28;20198;-52
2021/08/10 06:05:13;;;;;;;1.00;0.90;;;16.00;61.40;;;;;;4971828;28;20201;-48
2021/08/10 06:07:49;;;;;;;1.15;1.00;;;16.00;61.30;;;;;;4973118;28;20224;-46
2021/08/10 06:10:32;;;;;;;1.35;1.13;;;15.90;61.90;;;;;;4971569;28;20197;-54
2021/08/10 06:13:11;;;;;;;1.02;0.90;;;15.90;61.30;;;;;;4972239;28;20567;-49
2021/08/10 06:15:46;;;;;;;0.77;0.77;;;15.90;61.10;;;;;;4971620;28;20218;-47
2021/08/10 06:18:31;;;;;;;0.90;0.82;;;15.90;61.00;;;;;;4972649;28;20215;-48
2021/08/10 06:21:12;;;;;;;1.10;1.00;;;15.90;61.00;;;;;;4972038;28;20293;-44
2021/08/10 06:23:45;;;;;;;1.20;1.10;;;15.90;60.90;;;;;;4972561;28;20284;-49
2021/08/10 06:26:23;;;;;;;1.20;0.90;;;15.90;61.00;;;;;;4973478;28;20249;-52
2021/08/10 06:29:05;;;;;;;1.23;1.02;;;15.80;60.90;;;;;;4972098;28;20329;-51
2021/08/10 06:31:52;;;;;;;0.95;0.95;;;15.80;60.80;;;;;;4972110;28;20589;-46
2021/08/10 06:34:25;;;;;;;0.85;0.85;;;15.80;60.80;;;;;;4972778;28;20625;-46
2021/08/10 06:37:04;;;;;;;0.80;0.80;;;15.80;60.90;;;;;;4972150;28;20218;-49
2021/08/10 06:39:37;;;;;;;1.10;1.00;;;15.80;60.90;;;;;;4972456;28;20197;-44
2021/08/10 06:42:10;;;;;;;0.80;0.80;;;15.80;61.00;;;;;;4970944;28;20194;-47
2021/08/10 06:44:49;;;;;;;0.90;0.90;;;15.70;61.00;;;;;;4972779;28;20206;-50
2021/08/10 06:47:23;;;;;;;0.80;0.80;;;15.70;61.00;;;;;;4980766;28;20244;-47
2021/08/10 06:50:02;;;;;;;0.85;0.85;;;15.70;61.00;;;;;;4984152;28;20245;-46
2021/08/10 06:52:46;;;;;;;0.90;0.90;;;15.70;61.10;;;;;;4971156;28;20535;-46
2021/08/10 06:55:32;;;;;;;0.85;0.85;;;15.70;61.10;;;;;;4971388;28;20663;-50
2021/08/10 06:58:21;;;;;;;0.88;0.88;;;15.70;61.10;;;;;;4971321;28;20209;-46
2021/08/10 07:00:59;;;;;;;0.80;0.80;;;15.70;62.00;;;;;;4971952;28;20206;-44
2021/08/10 07:03:49;;;;;;;0.90;0.90;;;15.70;61.20;;;;;;4989198;28;20205;-47
2021/08/10 07:06:42;;;;;;;1.27;0.98;;;15.60;61.10;;;;;;4991284;28;20268;-47
2021/08/10 07:09:15;;;;;;;0.90;0.90;;;15.60;61.10;;;;;;4990627;28;20701;-49
2021/08/10 07:11:48;;;;;;;1.08;0.98;;;15.60;61.10;;;;;;4990873;28;20204;-44
2021/08/10 07:14:21;;;;;;;1.60;0.85;;;15.60;61.10;;;;;;4991750;28;20190;-50
2021/08/10 07:19:51;;;;;;;1.33;1.10;;;15.50;61.20;;;;;;4982887;28;20212;-48
2021/08/10 07:22:27;;;;;;;2.13;1.20;;;15.50;61.10;;;;;;4971870;28;20208;-44
2021/08/10 07:25:00;;;;;;;1.42;1.17;;;15.50;61.20;;;;;;4971877;28;20206;-44
2021/08/10 07:27:35;;;;;;;1.40;1.30;;;15.50;61.20;;;;;;4970530;28;20716;-44
2021/08/10 07:30:21;;;;;;;1.10;1.00;;;15.50;61.10;;;;;;4972218;28;20197;-48
2021/08/10 07:32:58;;;;;;;1.13;1.10;;;15.50;61.20;;;;;;4971339;28;20198;-47
2021/08/10 07:35:34;;;;;;;1.70;1.23;;;15.50;61.10;;;;;;4971631;28;20230;-47
2021/08/10 07:38:12;;;;;;;2.95;1.70;;;15.50;61.10;;;;;;4971443;28;20664;-45
2021/08/10 07:40:56;;;;;;;3.00;1.70;;;15.50;61.10;;;;;;4974382;28;20207;-44
2021/08/10 07:43:46;;;;;;;2.45;1.50;;;15.50;61.90;;;;;;4975285;28;20322;-44
2021/08/10 07:46:25;;;;;;;3.53;1.58;;;15.40;61.00;;;;;;5058234;23;20555;-55
2021/08/10 07:49:18;;;;;;;1.40;1.25;;;15.40;61.00;;;;;;5074415;28;20237;-51
2021/08/10 07:52:06;;;;;;;1.65;1.52;;;15.40;61.10;;;;;;5054698;28;20671;-53
2021/08/10 08:00:51;;;;;;;1.65;1.50;;;15.40;61.00;;;;;;5054355;28;20252;-51
2021/08/10 08:03:35;;;;;;;3.80;1.42;;;15.40;60.90;;;;;;5054233;28;20207;-55
2021/08/10 08:06:24;;;;;;;2.08;1.48;;;15.40;60.90;;;;;;5054221;28;20635;-51
2021/08/10 08:12:06;;;;;;;3.47;1.80;;;15.40;60.80;;;;;;5054111;28;20222;-54
2021/08/10 08:17:43;;;;;;;2.00;1.45;;;15.30;61.00;;;;;;5053688;28;20546;-57
2021/08/10 08:20:22;;;;;;;3.38;1.60;;;15.40;60.90;;;;;;5053445;28;20203;-52
2021/08/10 08:22:56;;;;;;;3.53;1.80;;;15.40;61.00;;;;;;5052975;28;20196;-57
2021/08/10 08:25:32;;;;;;;2.78;1.88;;;15.30;61.30;;;;;;5053484;28;20567;-52
2021/08/10 08:28:08;;;;;;;3.40;1.73;;;15.30;61.30;;;;;;5055347;28;20191;-54
2021/08/10 08:31:13;;;;;;;2.63;1.50;;;15.40;61.30;;;;;;5053354;28;20222;-54
2021/08/10 08:34:02;;;;;;;2.83;1.65;;;15.30;61.20;;;;;;5053851;28;20199;-55
2021/08/10 08:36:54;;;;;;;2.08;1.70;;;15.30;61.20;;;;;;5053665;28;20266;-56
2021/08/10 08:39:25;;;;;;;2.80;1.67;;;15.30;61.10;;;;;;5053627;28;20249;-56
2021/08/10 08:41:57;;;;;;;2.40;1.40;;;15.30;61.90;;;;;;5053497;28;20257;-53
2021/08/10 08:44:34;;;;;;;2.80;1.73;;;15.30;61.20;;;;;;5053532;28;20252;-59
2021/08/10 08:47:10;;;;;;;3.47;1.90;;;15.30;61.10;;;;;;5052920;28;20219;-60
2021/08/10 08:49:44;;;;;;;2.78;1.67;;;15.30;61.10;;;;;;5051876;28;20273;-51
2021/08/10 08:52:17;;;;;;;1.48;1.38;;;15.20;61.00;;;;;;5055767;28;20202;-56
2021/08/10 08:54:51;;;;;;;3.75;1.50;;;15.20;60.90;;;;;;5053019;28;20253;-57
2021/08/10 08:57:26;;;;;;;2.85;1.70;;;15.20;60.70;;;;;;5052259;28;20245;-55
2021/08/10 09:02:48;;;;;;;2.10;1.90;;;15.20;60.90;;;;;;5051721;28;20199;-56
2021/08/10 09:05:39;;;;;;;2.35;1.83;;;15.20;61.00;;;;;;5051105;28;20204;-55
2021/08/10 09:08:47;;;;;;;2.70;1.52;;;15.20;61.10;;;;;;5051267;28;20210;-56
2021/08/10 09:11:25;;;;;;;2.28;1.58;;;15.20;61.00;;;;;;5051279;28;20705;-57
2021/08/10 09:14:15;;;;;;;3.28;1.45;;;15.20;61.00;;;;;;5051739;28;20199;-57
2021/08/10 09:17:01;;;;;;;3.33;1.80;;;15.20;60.90;;;;;;5050448;28;20277;-56
2021/08/10 09:19:47;;;;;;;2.90;1.50;;;15.20;60.90;;;;;;5050642;28;20264;-59
2021/08/10 09:22:22;;;;;;;3.00;1.73;;;15.10;60.80;;;;;;5051306;28;20241;-58
2021/08/10 09:25:20;;;;;;;1.88;1.70;;;15.10;60.80;;;;;;5051708;28;20201;-56
2021/08/10 09:28:12;;;;;;;1.65;1.30;;;15.10;60.90;;;;;;5049338;28;20214;-54
2021/08/10 09:31:06;;;;;;;2.72;1.50;;;15.10;60.90;;;;;;5050442;28;20200;-59
2021/08/10 09:34:18;;;;;;;1.83;1.52;;;15.10;60.80;;;;;;5050368;28;20199;-54
2021/08/10 09:39:44;;;;;;;1.35;1.25;;;15.00;60.70;;;;;;5050795;28;20257;-55
2021/08/10 09:42:20;;;;;;;1.60;1.50;;;15.00;60.70;;;;;;5050795;28;20195;-54
2021/08/10 09:48:20;;;;;;;2.17;1.40;;;15.00;60.80;;;;;;5031641;28;20566;-42
2021/08/10 09:53:42;;;;;;;1.95;1.13;;;14.90;60.70;;;;;;5030809;28;20659;-41
2021/08/10 09:56:27;;;;;;;1.80;1.50;;;14.90;60.70;;;;;;5029408;28;20705;-42
2021/08/10 09:59:03;;;;;;;2.30;1.25;;;14.90;60.70;;;;;;5031549;28;20208;-45
2021/08/10 10:05:02;;;;;;;1.70;1.25;;;14.90;60.80;;;;;;5030341;28;20199;-41
2021/08/10 10:08:04;;;;;;;1.90;1.30;;;14.90;60.80;;;;;;5030686;28;20203;-41
2021/08/10 10:10:57;;;;;;;2.38;1.35;;;14.90;60.80;;;;;;5031019;28;20281;-42
2021/08/10 10:13:33;;;;;;;1.40;1.30;;;14.80;60.80;;;;;;5030581;28;20200;-43
2021/08/10 10:19:23;;;;;;;2.47;1.63;;;14.80;60.70;;;;;;5031317;28;20558;-42
2021/08/10 10:22:25;;;;;;;1.23;1.13;;;14.80;60.70;;;;;;5011248;28;20641;-43
2021/08/10 10:28:03;;;;;;;1.83;1.23;;;14.80;60.80;;;;;;5011948;28;20199;-48
2021/08/10 10:30:56;;;;;;;1.88;1.33;;;14.70;60.70;;;;;;5013232;28;20299;-44
2021/08/10 10:40:15;;;;;;;1.98;1.25;;;14.70;60.70;;;;;;5012101;28;20216;-42
2021/08/10 10:42:48;;;;;;;2.10;1.45;;;14.70;60.70;;;;;;5011719;28;20196;-43
2021/08/10 10:45:41;;;;;;;1.35;1.10;;;14.70;60.70;;;;;;5029304;28;20540;-41
2021/08/10 10:48:50;;;;;;;1.50;1.40;;;14.70;60.60;;;;;;5031460;28;20242;-43
2021/08/10 10:54:31;;;;;;;2.03;1.40;;;14.70;60.60;;;;;;5031690;28;20242;-42
2021/08/10 10:57:06;;;;;;;1.55;1.25;;;14.60;60.50;;;;;;5031365;28;20232;-46
2021/08/10 10:59:54;;;;;;;1.50;1.40;;;14.60;60.50;;;;;;5031587;28;20203;-41
2021/08/10 11:02:31;;;;;;;1.30;1.20;;;14.60;60.40;;;;;;5031175;28;20207;-45
2021/08/10 11:08:45;;;;;;;2.40;1.17;;;14.60;60.50;;;;;;5031228;28;20226;-45
2021/08/10 11:14:57;;;;;;;3.67;1.27;;;14.60;60.60;;;;;;5035067;28;20231;-45
2021/08/10 11:17:59;;;;;;;1.33;1.23;;;14.60;60.60;;;;;;5035204;28;20223;-42
2021/08/10 11:20:54;;;;;;;2.15;1.15;;;14.50;60.50;;;;;;5034917;28;20204;-45
2021/08/10 11:23:42;;;;;;;1.65;1.33;;;14.50;60.50;;;;;;5035126;28;20730;-42
2021/08/10 11:30:04;;;;;;;1.30;1.08;;;14.50;60.70;;;;;;5034966;28;20223;-45
2021/08/10 11:32:53;;;;;;;1.73;1.30;;;14.50;60.60;;;;;;5034966;28;20196;-46
2021/08/10 11:35:45;;;;;;;2.08;1.20;;;14.50;60.60;;;;;;5034511;28;20287;-41
2021/08/10 11:41:11;;;;;;;1.20;1.10;;;14.50;60.50;;;;;;5034811;28;20199;-46
2021/08/10 11:46:51;;;;;;;1.23;1.00;;;14.50;60.60;;;;;;5044783;23;20235;-53
2021/08/10 11:52:47;;;;;;;1.15;1.05;;;14.40;60.60;;;;;;5034909;28;20289;-56
2021/08/10 11:55:32;;;;;;;1.63;1.00;;;14.50;60.70;;;;;;5034433;28;20203;-55
2021/08/10 11:58:22;;;;;;;1.85;1.23;;;14.50;60.60;;;;;;5032382;28;20192;-51
2021/08/10 12:01:05;;;;;;;1.10;1.00;;;14.40;60.60;;;;;;5033887;28;20196;-53
2021/08/10 12:03:55;;;;;;;1.38;1.10;;;14.40;60.70;;;;;;5033233;28;20196;-56
2021/08/10 12:07:01;;;;;;;1.20;1.10;;;14.40;60.70;;;;;;5030159;28;20274;-52
2021/08/10 12:10:03;;;;;;;1.35;1.25;;;14.40;60.70;;;;;;5034049;28;20632;-52
2021/08/10 12:12:54;;;;;;;2.17;1.20;;;14.40;60.60;;;;;;5034202;28;20203;-54
2021/08/10 12:16:02;;;;;;;1.33;1.00;;;14.40;60.60;;;;;;5033683;28;20278;-54
2021/08/10 12:24:41;;;;;;;1.10;1.00;;;14.40;60.50;;;;;;5032944;28;20612;-51
2021/08/10 12:27:38;;;;;;;1.10;1.00;;;14.40;60.60;;;;;;5033653;28;20220;-52
2021/08/10 12:36:41;;;;;;;1.10;0.80;;;14.30;60.50;;;;;;5030895;28;20235;-51
2021/08/10 12:45:41;;;;;;;0.85;0.85;;;14.30;60.70;;;;;;5041445;23;20347;-44
2021/08/10 12:48:33;;;;;;;1.10;0.98;;;14.30;60.70;;;;;;5014503;28;20197;-46
2021/08/10 12:51:18;;;;;;;1.27;1.17;;;14.30;60.80;;;;;;5008880;28;20228;-46
2021/08/10 12:56:52;;;;;;;1.35;1.00;;;14.30;60.80;;;;;;5013397;28;20223;-45
2021/08/10 13:02:36;;;;;;;0.90;0.90;;;14.30;60.70;;;;;;5013162;28;20192;-47
2021/08/10 13:08:05;;;;;;;1.20;1.00;;;14.30;60.60;;;;;;5009347;28;20193;-42
2021/08/10 13:16:38;;;;;;;1.23;0.98;;;14.20;60.60;;;;;;5013008;28;20271;-43
2021/08/10 13:19:17;;;;;;;1.17;1.00;;;14.20;60.60;;;;;;5013437;28;20243;-46
2021/08/10 13:21:53;;;;;;;0.90;0.90;;;14.20;60.60;;;;;;5013130;28;20207;-45
2021/08/10 13:24:26;;;;;;;0.98;0.90;;;14.20;60.70;;;;;;5012852;28;20192;-47
2021/08/10 13:26:59;;;;;;;1.08;1.02;;;14.20;60.80;;;;;;5012659;28;20213;-46
2021/08/10 13:29:39;;;;;;;1.25;1.13;;;14.20;60.80;;;;;;5012818;28;20227;-49
2021/08/10 13:35:45;;;;;;;1.20;0.90;;;14.20;60.80;;;;;;5012708;28;20196;-51
2021/08/10 13:47:14;;;;;;;1.38;1.10;;;14.20;60.70;;;;;;4991801;28;20235;-54
2021/08/10 13:59:16;;;;;;;1.77;1.50;;;14.20;60.80;;;;;;4992990;28;20669;-54
2021/08/10 14:02:16;;;;;;;1.75;1.35;;;14.20;60.80;;;;;;4992976;28;20205;-51
2021/08/10 14:05:22;;;;;;;;;;;;;;;;;;;;;
2021/08/10 14:16:54;;;;;;;1.15;1.00;;;14.20;60.90;;;;;;4992432;28;20227;-50
2021/08/10 14:19:28;;;;;;;1.70;1.20;;;14.10;60.80;;;;;;4992181;28;20285;-55
2021/08/10 14:22:07;;;;;;;1.33;1.23;;;14.10;60.90;;;;;;4992122;28;20202;-51
2021/08/10 14:27:31;;;;;;;1.30;1.20;;;14.10;60.80;;;;;;4991967;28;20220;-54
2021/08/10 14:30:21;;;;;;;1.33;1.17;;;14.10;60.80;;;;;;4992191;28;20267;-58
2021/08/10 14:33:11;;;;;;;1.40;1.20;;;14.10;60.90;;;;;;4991851;28;20198;-53
2021/08/10 14:36:13;;;;;;;1.60;1.30;;;14.10;60.80;;;;;;4991582;28;20560;-58
2021/08/10 14:39:05;;;;;;;1.17;0.95;;;14.10;60.80;;;;;;4989816;28;20190;-56
2021/08/10 14:41:47;;;;;;;1.25;1.15;;;14.00;60.80;;;;;;4963175;28;20689;-57
2021/08/10 14:47:28;;;;;;;1.55;1.30;;;14.00;60.90;;;;;;5009221;28;20221;-44
2021/08/10 14:53:28;;;;;;;1.48;1.27;;;14.00;60.90;;;;;;5011291;28;20204;-43
2021/08/10 14:55:59;;;;;;;1.30;1.10;;;14.00;60.80;;;;;;5011070;28;20216;-44
2021/08/10 14:58:40;;;;;;;1.92;1.30;;;14.00;60.80;;;;;;5011153;28;20193;-46
2021/08/10 15:04:37;;;;;;;1.20;1.10;;;14.00;60.80;;;;;;5011218;28;20668;-45
2021/08/10 15:10:17;;;;;;;2.03;1.30;;;13.90;60.80;;;;;;5011738;28;20335;-43
2021/08/10 15:13:22;;;;;;;1.20;1.10;;;13.90;60.80;;;;;;5011440;28;20201;-44
2021/08/10 15:15:53;;;;;;;1.92;1.17;;;13.90;60.80;;;;;;5011306;28;20295;-44
2021/08/10 15:18:23;;;;;;;1.30;1.20;;;13.90;60.90;;;;;;5010740;28;20207;-46
2021/08/10 15:20:56;;;;;;;1.65;1.30;;;13.90;60.80;;;;;;5011029;28;20565;-44
2021/08/10 15:23:26;;;;;;;1.73;1.25;;;13.80;60.80;;;;;;5011590;28;20232;-43
2021/08/10 15:25:57;;;;;;;1.23;1.10;;;13.80;60.90;;;;;;5011855;28;20310;-47
2021/08/10 15:28:27;;;;;;;1.40;1.30;;;13.80;60.90;;;;;;5011537;28;20201;-44
2021/08/10 15:30:57;;;;;;;1.60;1.30;;;13.80;60.90;;;;;;5011583;28;20337;-45
2021/08/10 15:33:28;;;;;;;1.25;1.15;;;13.80;61.00;;;;;;5011072;28;20302;-46
2021/08/10 15:36:00;;;;;;;1.42;1.30;;;13.80;61.00;;;;;;5010825;28;20571;-44
2021/08/10 15:38:30;;;;;;;1.20;1.10;;;13.80;61.00;;;;;;5011486;28;20282;-46
2021/08/10 15:41:01;;;;;;;1.70;1.30;;;13.80;60.90;;;;;;5011473;28;20303;-43
2021/08/10 15:43:33;;;;;;;1.17;1.08;;;13.80;60.90;;;;;;5011086;28;20723;-48
2021/08/10 15:46:03;;;;;;;1.30;1.20;;;13.80;60.90;;;;;;5011628;28;20231;-43
2021/08/10 15:48:34;;;;;;;1.20;1.10;;;13.70;60.90;;;;;;5011409;28;20232;-46
2021/08/10 15:51:07;;;;;;;1.70;1.33;;;13.70;60.90;;;;;;5011077;28;20260;-44
2021/08/10 15:53:37;;;;;;;2.50;1.30;;;13.70;60.90;;;;;;5011120;28;20245;-43
2021/08/10 15:56:08;;;;;;;1.30;1.20;;;13.70;60.90;;;;;;5010516;28;20688;-46
2021/08/10 15:58:40;;;;;;;1.45;1.20;;;13.70;61.00;;;;;;5010928;28;20228;-45
2021/08/10 16:01:11;;;;;;;1.42;1.20;;;13.70;61.00;;;;;;5014496;28;20193;-43
2021/08/10 16:03:41;;;;;;;1.42;1.30;;;13.60;61.00;;;;;;5014538;28;20228;-47
2021/08/10 16:06:13;;;;;;;2.33;1.30;;;13.60;61.00;;;;;;5014423;28;20561;-44
2021/08/10 16:08:44;;;;;;;1.90;1.27;;;13.60;61.10;;;;;;5014393;28;20278;-44
2021/08/10 16:11:14;;;;;;;2.17;1.30;;;13.60;61.10;;;;;;5014377;28;20228;-44
2021/08/10 16:13:45;;;;;;;1.35;1.20;;;13.60;61.10;;;;;;5014260;28;20239;-44
2021/08/10 16:16:15;;;;;;;1.55;1.20;;;13.60;61.20;;;;;;5013896;28;20221;-44